sensor_id;sensor_type;location;lat;lon;timestamp;P1;durP1;ratioP1;P2;durP2;ratioP2
434;SDS011;204;48.942;9.256;2022-12-26T00:01:36;3.72;;;3.53;;
434;SDS011;204;48.942;9.256;2022-12-26T00:04:04;4.00;;;3.80;;
434;SDS011;204;48.942;9.256;2022-12-26T00:06:30;6.47;;;3.20;;
434;SDS011;204;48.942;9.256;2022-12-26T00:08:57;3.17;;;2.97;;
434;SDS011;204;48.942;9.256;2022-12-26T00:11:23;3.45;;;3.25;;
434;SDS011;204;48.942;9.256;2022-12-26T00:13:54;4.82;;;3.67;;
434;SDS011;204;48.942;9.256;2022-12-26T00:16:24;5.13;;;3.65;;
434;SDS011;204;48.942;9.256;2022-12-26T00:18:50;4.33;;;3.50;;
434;SDS011;204;48.942;9.256;2022-12-26T00:21:17;4.70;;;4.32;;
434;SDS011;204;48.942;9.256;2022-12-26T00:23:43;5.65;;;4.55;;
434;SDS011;204;48.942;9.256;2022-12-26T00:26:11;3.85;;;3.60;;
434;SDS011;204;48.942;9.256;2022-12-26T00:28:42;3.90;;;3.70;;
434;SDS011;204;48.942;9.256;2022-12-26T00:31:09;3.72;;;3.53;;
434;SDS011;204;48.942;9.256;2022-12-26T00:33:36;3.88;;;3.15;;
434;SDS011;204;48.942;9.256;2022-12-26T00:36:03;3.17;;;3.00;;
434;SDS011;204;48.942;9.256;2022-12-26T00:38:32;4.18;;;3.92;;
434;SDS011;204;48.942;9.256;2022-12-26T00:41:02;3.40;;;3.20;;
434;SDS011;204;48.942;9.256;2022-12-26T00:43:28;3.83;;;3.63;;
434;SDS011;204;48.942;9.256;2022-12-26T00:45:54;4.33;;;3.37;;
434;SDS011;204;48.942;9.256;2022-12-26T00:48:20;5.00;;;3.33;;
434;SDS011;204;48.942;9.256;2022-12-26T00:50:46;3.93;;;3.73;;
434;SDS011;204;48.942;9.256;2022-12-26T00:53:11;3.17;;;2.97;;
434;SDS011;204;48.942;9.256;2022-12-26T00:55:46;3.23;;;3.10;;
434;SDS011;204;48.942;9.256;2022-12-26T00:58:19;5.40;;;3.47;;
434;SDS011;204;48.942;9.256;2022-12-26T01:01:08;4.10;;;3.50;;
434;SDS011;204;48.942;9.256;2022-12-26T01:03:44;3.80;;;3.60;;
434;SDS011;204;48.942;9.256;2022-12-26T01:06:10;3.67;;;3.38;;
434;SDS011;204;48.942;9.256;2022-12-26T01:08:36;4.90;;;4.60;;
434;SDS011;204;48.942;9.256;2022-12-26T01:11:03;6.27;;;5.07;;
434;SDS011;204;48.942;9.256;2022-12-26T01:13:31;5.18;;;4.13;;
434;SDS011;204;48.942;9.256;2022-12-26T01:15:57;3.28;;;3.03;;
434;SDS011;204;48.942;9.256;2022-12-26T01:18:24;4.55;;;3.83;;
434;SDS011;204;48.942;9.256;2022-12-26T01:20:49;4.80;;;4.00;;
434;SDS011;204;48.942;9.256;2022-12-26T01:23:15;5.07;;;4.00;;
434;SDS011;204;48.942;9.256;2022-12-26T01:25:41;4.13;;;3.90;;
434;SDS011;204;48.942;9.256;2022-12-26T01:28:07;3.83;;;3.63;;
434;SDS011;204;48.942;9.256;2022-12-26T01:30:32;3.97;;;3.80;;
434;SDS011;204;48.942;9.256;2022-12-26T01:32:58;3.77;;;3.50;;
434;SDS011;204;48.942;9.256;2022-12-26T01:35:26;3.63;;;3.43;;
434;SDS011;204;48.942;9.256;2022-12-26T01:37:51;3.55;;;3.35;;
434;SDS011;204;48.942;9.256;2022-12-26T01:40:17;3.47;;;3.27;;
434;SDS011;204;48.942;9.256;2022-12-26T01:42:42;3.93;;;3.77;;
434;SDS011;204;48.942;9.256;2022-12-26T01:50:44;4.50;;;3.75;;
434;SDS011;204;48.942;9.256;2022-12-26T01:53:19;3.88;;;3.67;;
434;SDS011;204;48.942;9.256;2022-12-26T01:55:53;3.95;;;3.78;;
434;SDS011;204;48.942;9.256;2022-12-26T01:58:30;4.32;;;3.85;;
434;SDS011;204;48.942;9.256;2022-12-26T02:00:58;3.78;;;3.60;;
434;SDS011;204;48.942;9.256;2022-12-26T02:03:27;4.93;;;3.78;;
434;SDS011;204;48.942;9.256;2022-12-26T02:06:11;3.38;;;3.17;;
434;SDS011;204;48.942;9.256;2022-12-26T02:08:38;3.75;;;3.55;;
434;SDS011;204;48.942;9.256;2022-12-26T02:11:06;3.80;;;3.22;;
434;SDS011;204;48.942;9.256;2022-12-26T02:13:48;3.45;;;3.25;;
434;SDS011;204;48.942;9.256;2022-12-26T02:16:15;3.63;;;3.43;;
434;SDS011;204;48.942;9.256;2022-12-26T02:18:42;3.60;;;3.40;;
434;SDS011;204;48.942;9.256;2022-12-26T02:41:07;4.50;;;4.20;;
434;SDS011;204;48.942;9.256;2022-12-26T02:43:55;3.92;;;3.75;;
434;SDS011;204;48.942;9.256;2022-12-26T02:46:53;3.47;;;3.28;;
434;SDS011;204;48.942;9.256;2022-12-26T02:52:43;3.05;;;2.85;;
434;SDS011;204;48.942;9.256;2022-12-26T02:55:52;4.90;;;3.75;;
434;SDS011;204;48.942;9.256;2022-12-26T03:01:47;4.10;;;3.80;;
434;SDS011;204;48.942;9.256;2022-12-26T03:04:37;4.05;;;3.65;;
434;SDS011;204;48.942;9.256;2022-12-26T03:07:24;4.25;;;3.97;;
434;SDS011;204;48.942;9.256;2022-12-26T03:10:17;4.07;;;3.88;;
434;SDS011;204;48.942;9.256;2022-12-26T03:13:06;3.42;;;3.25;;
434;SDS011;204;48.942;9.256;2022-12-26T03:15:45;3.53;;;3.15;;
434;SDS011;204;48.942;9.256;2022-12-26T03:18:35;3.78;;;3.58;;
434;SDS011;204;48.942;9.256;2022-12-26T03:21:06;3.60;;;3.40;;
434;SDS011;204;48.942;9.256;2022-12-26T03:23:33;3.90;;;3.70;;
434;SDS011;204;48.942;9.256;2022-12-26T03:26:05;2.67;;;2.47;;
434;SDS011;204;48.942;9.256;2022-12-26T03:28:57;3.22;;;3.00;;
434;SDS011;204;48.942;9.256;2022-12-26T03:31:42;3.33;;;3.13;;
434;SDS011;204;48.942;9.256;2022-12-26T03:34:08;3.30;;;3.10;;
434;SDS011;204;48.942;9.256;2022-12-26T03:42:37;3.22;;;3.10;;
434;SDS011;204;48.942;9.256;2022-12-26T03:48:18;3.05;;;2.85;;
434;SDS011;204;48.942;9.256;2022-12-26T03:54:44;3.92;;;3.45;;
434;SDS011;204;48.942;9.256;2022-12-26T03:57:24;3.25;;;3.05;;
434;SDS011;204;48.942;9.256;2022-12-26T04:00:14;4.32;;;3.15;;
434;SDS011;204;48.942;9.256;2022-12-26T04:02:59;2.83;;;2.65;;
434;SDS011;204;48.942;9.256;2022-12-26T04:05:49;3.47;;;3.30;;
434;SDS011;204;48.942;9.256;2022-12-26T04:08:44;3.17;;;2.80;;
434;SDS011;204;48.942;9.256;2022-12-26T04:11:56;4.00;;;2.78;;
434;SDS011;204;48.942;9.256;2022-12-26T04:14:53;2.70;;;2.50;;
434;SDS011;204;48.942;9.256;2022-12-26T04:17:58;3.00;;;2.83;;
434;SDS011;204;48.942;9.256;2022-12-26T04:21:07;2.72;;;2.63;;
434;SDS011;204;48.942;9.256;2022-12-26T04:24:02;2.97;;;2.78;;
434;SDS011;204;48.942;9.256;2022-12-26T04:26:53;2.83;;;2.65;;
434;SDS011;204;48.942;9.256;2022-12-26T04:29:42;2.97;;;2.78;;
434;SDS011;204;48.942;9.256;2022-12-26T04:33:02;3.58;;;2.53;;
434;SDS011;204;48.942;9.256;2022-12-26T04:38:33;3.20;;;3.00;;
434;SDS011;204;48.942;9.256;2022-12-26T04:41:25;3.33;;;3.17;;
434;SDS011;204;48.942;9.256;2022-12-26T04:44:12;2.97;;;2.80;;
434;SDS011;204;48.942;9.256;2022-12-26T04:46:40;3.30;;;3.10;;
434;SDS011;204;48.942;9.256;2022-12-26T04:49:08;3.75;;;2.85;;
434;SDS011;204;48.942;9.256;2022-12-26T04:51:55;2.88;;;2.70;;
434;SDS011;204;48.942;9.256;2022-12-26T04:54:21;3.70;;;3.50;;
434;SDS011;204;48.942;9.256;2022-12-26T04:56:47;2.70;;;2.50;;
434;SDS011;204;48.942;9.256;2022-12-26T04:59:13;3.63;;;2.73;;
434;SDS011;204;48.942;9.256;2022-12-26T05:01:39;4.28;;;2.65;;
434;SDS011;204;48.942;9.256;2022-12-26T05:04:24;4.75;;;2.67;;
434;SDS011;204;48.942;9.256;2022-12-26T05:07:42;2.97;;;2.83;;
434;SDS011;204;48.942;9.256;2022-12-26T05:10:20;3.22;;;3.03;;
434;SDS011;204;48.942;9.256;2022-12-26T05:12:51;2.45;;;2.25;;
434;SDS011;204;48.942;9.256;2022-12-26T05:15:17;2.90;;;2.80;;
434;SDS011;204;48.942;9.256;2022-12-26T05:17:43;3.33;;;3.20;;
434;SDS011;204;48.942;9.256;2022-12-26T05:20:28;2.95;;;2.72;;
434;SDS011;204;48.942;9.256;2022-12-26T05:23:16;5.45;;;3.20;;
434;SDS011;204;48.942;9.256;2022-12-26T05:26:16;3.33;;;3.13;;
434;SDS011;204;48.942;9.256;2022-12-26T05:29:04;3.65;;;3.47;;
434;SDS011;204;48.942;9.256;2022-12-26T05:31:30;4.43;;;2.87;;
434;SDS011;204;48.942;9.256;2022-12-26T05:33:56;3.07;;;2.77;;
434;SDS011;204;48.942;9.256;2022-12-26T05:39:29;2.90;;;2.70;;
434;SDS011;204;48.942;9.256;2022-12-26T05:41:54;3.83;;;3.40;;
434;SDS011;204;48.942;9.256;2022-12-26T05:44:20;3.70;;;3.50;;
434;SDS011;204;48.942;9.256;2022-12-26T05:46:46;3.10;;;2.90;;
434;SDS011;204;48.942;9.256;2022-12-26T05:49:11;3.00;;;2.80;;
434;SDS011;204;48.942;9.256;2022-12-26T05:51:37;2.60;;;2.40;;
434;SDS011;204;48.942;9.256;2022-12-26T05:54:03;3.67;;;2.90;;
434;SDS011;204;48.942;9.256;2022-12-26T05:56:29;3.80;;;3.00;;
434;SDS011;204;48.942;9.256;2022-12-26T05:58:55;3.20;;;2.63;;
434;SDS011;204;48.942;9.256;2022-12-26T06:01:23;3.38;;;2.85;;
434;SDS011;204;48.942;9.256;2022-12-26T06:03:50;2.75;;;2.55;;
434;SDS011;204;48.942;9.256;2022-12-26T06:06:17;4.30;;;2.20;;
434;SDS011;204;48.942;9.256;2022-12-26T06:08:47;3.95;;;2.95;;
434;SDS011;204;48.942;9.256;2022-12-26T06:11:14;3.40;;;3.20;;
434;SDS011;204;48.942;9.256;2022-12-26T06:13:40;2.80;;;2.60;;
434;SDS011;204;48.942;9.256;2022-12-26T06:16:07;2.35;;;2.15;;
434;SDS011;204;48.942;9.256;2022-12-26T06:18:38;3.55;;;2.70;;
434;SDS011;204;48.942;9.256;2022-12-26T06:21:05;3.75;;;2.92;;
434;SDS011;204;48.942;9.256;2022-12-26T06:23:31;4.45;;;2.28;;
434;SDS011;204;48.942;9.256;2022-12-26T06:25:58;2.60;;;2.40;;
434;SDS011;204;48.942;9.256;2022-12-26T06:28:23;2.67;;;2.50;;
434;SDS011;204;48.942;9.256;2022-12-26T06:30:50;2.63;;;2.53;;
434;SDS011;204;48.942;9.256;2022-12-26T06:33:16;3.67;;;2.65;;
434;SDS011;204;48.942;9.256;2022-12-26T06:35:42;6.25;;;2.90;;
434;SDS011;204;48.942;9.256;2022-12-26T06:38:08;2.85;;;2.65;;
434;SDS011;204;48.942;9.256;2022-12-26T06:40:37;2.35;;;2.15;;
434;SDS011;204;48.942;9.256;2022-12-26T06:43:05;3.00;;;2.70;;
434;SDS011;204;48.942;9.256;2022-12-26T06:45:31;3.90;;;2.85;;
434;SDS011;204;48.942;9.256;2022-12-26T06:47:57;3.07;;;2.87;;
434;SDS011;204;48.942;9.256;2022-12-26T06:50:23;2.92;;;2.30;;
434;SDS011;204;48.942;9.256;2022-12-26T06:52:49;2.57;;;2.37;;
434;SDS011;204;48.942;9.256;2022-12-26T06:55:15;2.60;;;2.40;;
434;SDS011;204;48.942;9.256;2022-12-26T06:57:40;2.70;;;2.57;;
434;SDS011;204;48.942;9.256;2022-12-26T07:00:06;2.83;;;2.63;;
434;SDS011;204;48.942;9.256;2022-12-26T07:02:32;2.40;;;2.25;;
434;SDS011;204;48.942;9.256;2022-12-26T07:04:57;2.30;;;2.10;;
434;SDS011;204;48.942;9.256;2022-12-26T07:07:23;3.07;;;2.70;;
434;SDS011;204;48.942;9.256;2022-12-26T07:09:48;3.37;;;3.17;;
434;SDS011;204;48.942;9.256;2022-12-26T07:12:14;3.00;;;2.80;;
434;SDS011;204;48.942;9.256;2022-12-26T07:14:40;2.73;;;2.50;;
434;SDS011;204;48.942;9.256;2022-12-26T07:17:05;4.27;;;3.70;;
434;SDS011;204;48.942;9.256;2022-12-26T07:19:32;5.45;;;3.33;;
434;SDS011;204;48.942;9.256;2022-12-26T07:21:58;2.45;;;2.25;;
434;SDS011;204;48.942;9.256;2022-12-26T07:24:24;2.87;;;2.67;;
434;SDS011;204;48.942;9.256;2022-12-26T07:26:49;2.70;;;2.50;;
434;SDS011;204;48.942;9.256;2022-12-26T07:29:15;3.73;;;3.20;;
434;SDS011;204;48.942;9.256;2022-12-26T07:31:41;2.90;;;2.70;;
434;SDS011;204;48.942;9.256;2022-12-26T07:34:07;3.47;;;2.93;;
434;SDS011;204;48.942;9.256;2022-12-26T07:36:33;3.70;;;3.50;;
434;SDS011;204;48.942;9.256;2022-12-26T07:38:58;3.50;;;3.30;;
434;SDS011;204;48.942;9.256;2022-12-26T07:41:24;4.70;;;4.17;;
434;SDS011;204;48.942;9.256;2022-12-26T07:44:09;3.83;;;3.10;;
434;SDS011;204;48.942;9.256;2022-12-26T07:46:35;4.60;;;2.90;;
434;SDS011;204;48.942;9.256;2022-12-26T07:49:01;3.27;;;3.07;;
434;SDS011;204;48.942;9.256;2022-12-26T07:51:27;4.15;;;3.10;;
434;SDS011;204;48.942;9.256;2022-12-26T07:53:52;3.30;;;2.80;;
434;SDS011;204;48.942;9.256;2022-12-26T07:56:18;3.73;;;2.80;;
434;SDS011;204;48.942;9.256;2022-12-26T07:58:47;3.47;;;3.17;;
434;SDS011;204;48.942;9.256;2022-12-26T08:01:13;3.40;;;3.05;;
434;SDS011;204;48.942;9.256;2022-12-26T08:03:39;4.57;;;3.33;;
434;SDS011;204;48.942;9.256;2022-12-26T08:06:05;2.77;;;2.57;;
434;SDS011;204;48.942;9.256;2022-12-26T08:08:33;3.47;;;3.03;;
434;SDS011;204;48.942;9.256;2022-12-26T08:11:02;13.40;;;11.33;;
434;SDS011;204;48.942;9.256;2022-12-26T08:13:32;3.70;;;3.50;;
434;SDS011;204;48.942;9.256;2022-12-26T08:15:58;4.32;;;4.05;;
434;SDS011;204;48.942;9.256;2022-12-26T08:18:28;4.43;;;4.13;;
434;SDS011;204;48.942;9.256;2022-12-26T08:20:53;4.30;;;3.03;;
434;SDS011;204;48.942;9.256;2022-12-26T08:23:21;3.80;;;3.67;;
434;SDS011;204;48.942;9.256;2022-12-26T08:25:47;3.83;;;3.63;;
434;SDS011;204;48.942;9.256;2022-12-26T08:28:12;3.77;;;3.57;;
434;SDS011;204;48.942;9.256;2022-12-26T08:30:41;3.80;;;3.60;;
434;SDS011;204;48.942;9.256;2022-12-26T08:33:07;3.85;;;3.42;;
434;SDS011;204;48.942;9.256;2022-12-26T08:35:34;3.53;;;3.40;;
434;SDS011;204;48.942;9.256;2022-12-26T08:38:00;5.57;;;4.20;;
434;SDS011;204;48.942;9.256;2022-12-26T08:40:26;5.20;;;4.90;;
434;SDS011;204;48.942;9.256;2022-12-26T08:42:52;4.80;;;4.50;;
434;SDS011;204;48.942;9.256;2022-12-26T08:45:17;7.50;;;5.83;;
434;SDS011;204;48.942;9.256;2022-12-26T08:47:43;8.80;;;7.20;;
434;SDS011;204;48.942;9.256;2022-12-26T08:50:09;13.93;;;8.50;;
434;SDS011;204;48.942;9.256;2022-12-26T08:52:35;8.37;;;6.63;;
434;SDS011;204;48.942;9.256;2022-12-26T08:55:00;8.20;;;6.47;;
434;SDS011;204;48.942;9.256;2022-12-26T08:57:27;7.38;;;6.70;;
434;SDS011;204;48.942;9.256;2022-12-26T08:59:53;5.80;;;5.50;;
434;SDS011;204;48.942;9.256;2022-12-26T09:02:18;7.43;;;7.00;;
434;SDS011;204;48.942;9.256;2022-12-26T09:04:44;8.53;;;6.50;;
434;SDS011;204;48.942;9.256;2022-12-26T09:07:09;7.30;;;6.90;;
434;SDS011;204;48.942;9.256;2022-12-26T09:09:35;9.70;;;7.03;;
434;SDS011;204;48.942;9.256;2022-12-26T09:12:01;6.60;;;6.20;;
434;SDS011;204;48.942;9.256;2022-12-26T09:14:27;7.07;;;6.67;;
434;SDS011;204;48.942;9.256;2022-12-26T09:16:53;9.18;;;6.72;;
434;SDS011;204;48.942;9.256;2022-12-26T09:19:19;6.80;;;5.77;;
434;SDS011;204;48.942;9.256;2022-12-26T09:21:46;6.72;;;6.38;;
434;SDS011;204;48.942;9.256;2022-12-26T09:24:14;6.65;;;5.93;;
434;SDS011;204;48.942;9.256;2022-12-26T09:26:41;6.97;;;6.60;;
434;SDS011;204;48.942;9.256;2022-12-26T09:29:08;8.82;;;7.18;;
434;SDS011;204;48.942;9.256;2022-12-26T09:31:35;12.50;;;11.20;;
434;SDS011;204;48.942;9.256;2022-12-26T09:34:02;23.10;;;19.27;;
434;SDS011;204;48.942;9.256;2022-12-26T09:36:30;13.15;;;12.48;;
434;SDS011;204;48.942;9.256;2022-12-26T09:38:58;24.17;;;21.50;;
434;SDS011;204;48.942;9.256;2022-12-26T09:44:15;10.10;;;6.63;;
434;SDS011;204;48.942;9.256;2022-12-26T09:46:43;8.23;;;6.38;;
434;SDS011;204;48.942;9.256;2022-12-26T09:49:26;6.97;;;6.35;;
434;SDS011;204;48.942;9.256;2022-12-26T09:51:57;5.88;;;4.82;;
434;SDS011;204;48.942;9.256;2022-12-26T09:54:35;4.68;;;4.38;;
434;SDS011;204;48.942;9.256;2022-12-26T09:57:07;5.70;;;4.22;;
434;SDS011;204;48.942;9.256;2022-12-26T09:59:51;4.38;;;3.47;;
434;SDS011;204;48.942;9.256;2022-12-26T10:02:21;5.88;;;4.00;;
434;SDS011;204;48.942;9.256;2022-12-26T10:04:48;3.58;;;3.20;;
434;SDS011;204;48.942;9.256;2022-12-26T10:07:22;2.83;;;2.60;;
434;SDS011;204;48.942;9.256;2022-12-26T10:10:00;4.72;;;3.22;;
434;SDS011;204;48.942;9.256;2022-12-26T10:17:46;2.28;;;2.13;;
434;SDS011;204;48.942;9.256;2022-12-26T10:20:21;2.17;;;2.00;;
434;SDS011;204;48.942;9.256;2022-12-26T10:25:46;3.45;;;2.30;;
434;SDS011;204;48.942;9.256;2022-12-26T10:30:57;2.90;;;2.70;;
434;SDS011;204;48.942;9.256;2022-12-26T10:33:32;2.88;;;2.00;;
434;SDS011;204;48.942;9.256;2022-12-26T10:36:15;2.33;;;2.13;;
434;SDS011;204;48.942;9.256;2022-12-26T10:41:56;2.85;;;2.65;;
434;SDS011;204;48.942;9.256;2022-12-26T10:44:25;2.38;;;2.17;;
434;SDS011;204;48.942;9.256;2022-12-26T10:49:26;3.97;;;2.92;;
434;SDS011;204;48.942;9.256;2022-12-26T10:51:52;3.20;;;2.00;;
434;SDS011;204;48.942;9.256;2022-12-26T10:54:20;3.08;;;2.75;;
434;SDS011;204;48.942;9.256;2022-12-26T10:56:47;2.47;;;2.27;;
434;SDS011;204;48.942;9.256;2022-12-26T10:59:57;2.55;;;2.35;;
434;SDS011;204;48.942;9.256;2022-12-26T11:07:37;3.17;;;2.10;;
434;SDS011;204;48.942;9.256;2022-12-26T11:10:18;4.35;;;2.90;;
434;SDS011;204;48.942;9.256;2022-12-26T11:12:50;3.60;;;2.40;;
434;SDS011;204;48.942;9.256;2022-12-26T11:18:12;2.97;;;1.88;;
434;SDS011;204;48.942;9.256;2022-12-26T11:21:01;3.75;;;2.15;;
434;SDS011;204;48.942;9.256;2022-12-26T11:23:41;3.78;;;2.15;;
434;SDS011;204;48.942;9.256;2022-12-26T11:26:17;2.87;;;2.70;;
434;SDS011;204;48.942;9.256;2022-12-26T11:28:47;2.40;;;2.20;;
434;SDS011;204;48.942;9.256;2022-12-26T11:31:39;2.00;;;1.90;;
434;SDS011;204;48.942;9.256;2022-12-26T11:34:08;2.40;;;2.20;;
434;SDS011;204;48.942;9.256;2022-12-26T11:36:42;2.90;;;2.70;;
434;SDS011;204;48.942;9.256;2022-12-26T11:39:21;3.33;;;3.13;;
434;SDS011;204;48.942;9.256;2022-12-26T11:41:50;4.18;;;3.92;;
434;SDS011;204;48.942;9.256;2022-12-26T11:49:27;3.92;;;3.72;;
434;SDS011;204;48.942;9.256;2022-12-26T11:51:59;5.60;;;3.95;;
434;SDS011;204;48.942;9.256;2022-12-26T11:54:32;5.25;;;3.53;;
434;SDS011;204;48.942;9.256;2022-12-26T11:57:01;4.95;;;3.88;;
434;SDS011;204;48.942;9.256;2022-12-26T11:59:33;6.70;;;5.28;;
434;SDS011;204;48.942;9.256;2022-12-26T12:02:13;4.60;;;3.70;;
434;SDS011;204;48.942;9.256;2022-12-26T12:04:43;8.13;;;4.85;;
434;SDS011;204;48.942;9.256;2022-12-26T12:07:21;7.57;;;4.50;;
434;SDS011;204;48.942;9.256;2022-12-26T12:10:00;6.10;;;5.80;;
434;SDS011;204;48.942;9.256;2022-12-26T12:21:28;6.03;;;5.68;;
434;SDS011;204;48.942;9.256;2022-12-26T12:26:10;5.53;;;5.22;;
434;SDS011;204;48.942;9.256;2022-12-26T12:31:27;4.20;;;3.90;;
434;SDS011;204;48.942;9.256;2022-12-26T12:50:41;12.52;;;9.13;;
434;SDS011;204;48.942;9.256;2022-12-26T12:53:21;3.88;;;3.60;;
434;SDS011;204;48.942;9.256;2022-12-26T12:56:15;4.07;;;3.85;;
434;SDS011;204;48.942;9.256;2022-12-26T12:58:59;6.03;;;4.40;;
434;SDS011;204;48.942;9.256;2022-12-26T13:01:38;2.47;;;2.00;;
434;SDS011;204;48.942;9.256;2022-12-26T13:06:44;6.90;;;5.50;;
434;SDS011;204;48.942;9.256;2022-12-26T13:09:25;6.07;;;5.30;;
434;SDS011;204;48.942;9.256;2022-12-26T13:12:13;3.65;;;3.10;;
434;SDS011;204;48.942;9.256;2022-12-26T13:14:53;2.30;;;2.10;;
434;SDS011;204;48.942;9.256;2022-12-26T13:20:16;1.15;;;1.00;;
434;SDS011;204;48.942;9.256;2022-12-26T13:26:09;1.88;;;1.35;;
434;SDS011;204;48.942;9.256;2022-12-26T13:28:41;0.80;;;0.80;;
434;SDS011;204;48.942;9.256;2022-12-26T13:31:22;0.90;;;0.80;;
434;SDS011;204;48.942;9.256;2022-12-26T13:33:48;0.93;;;0.70;;
434;SDS011;204;48.942;9.256;2022-12-26T13:36:35;0.90;;;0.90;;
434;SDS011;204;48.942;9.256;2022-12-26T13:41:32;1.63;;;1.00;;
434;SDS011;204;48.942;9.256;2022-12-26T13:54:36;1.27;;;1.23;;
434;SDS011;204;48.942;9.256;2022-12-26T13:57:47;1.08;;;0.98;;
434;SDS011;204;48.942;9.256;2022-12-26T14:00:01;1.38;;;1.30;;
434;SDS011;204;48.942;9.256;2022-12-26T14:05:12;1.40;;;1.08;;
434;SDS011;204;48.942;9.256;2022-12-26T14:08:02;2.15;;;1.13;;
434;SDS011;204;48.942;9.256;2022-12-26T14:18:55;5.28;;;1.95;;
434;SDS011;204;48.942;9.256;2022-12-26T14:24:27;1.92;;;1.83;;
434;SDS011;204;48.942;9.256;2022-12-26T14:35:13;5.50;;;5.20;;
434;SDS011;204;48.942;9.256;2022-12-26T14:40:34;3.88;;;3.70;;
434;SDS011;204;48.942;9.256;2022-12-26T14:43:12;3.80;;;3.50;;
434;SDS011;204;48.942;9.256;2022-12-26T14:45:52;2.90;;;2.55;;
434;SDS011;204;48.942;9.256;2022-12-26T14:53:31;4.57;;;4.28;;
434;SDS011;204;48.942;9.256;2022-12-26T14:56:01;2.70;;;2.50;;
434;SDS011;204;48.942;9.256;2022-12-26T15:19:48;5.45;;;2.58;;
434;SDS011;204;48.942;9.256;2022-12-26T15:33:49;2.60;;;2.45;;
434;SDS011;204;48.942;9.256;2022-12-26T15:41:54;1.38;;;1.30;;
434;SDS011;204;48.942;9.256;2022-12-26T15:44:36;1.73;;;1.63;;
434;SDS011;204;48.942;9.256;2022-12-26T15:47:44;2.22;;;2.03;;
434;SDS011;204;48.942;9.256;2022-12-26T16:01:07;1.92;;;1.88;;
434;SDS011;204;48.942;9.256;2022-12-26T16:03:50;3.78;;;3.58;;
434;SDS011;204;48.942;9.256;2022-12-26T16:11:21;3.00;;;2.80;;
434;SDS011;204;48.942;9.256;2022-12-26T16:13:54;3.90;;;3.70;;
434;SDS011;204;48.942;9.256;2022-12-26T16:16:32;3.45;;;3.05;;
434;SDS011;204;48.942;9.256;2022-12-26T16:19:17;3.95;;;3.38;;
434;SDS011;204;48.942;9.256;2022-12-26T16:21:50;2.78;;;2.58;;
434;SDS011;204;48.942;9.256;2022-12-26T16:24:39;4.00;;;3.00;;
434;SDS011;204;48.942;9.256;2022-12-26T16:27:07;4.63;;;4.28;;
434;SDS011;204;48.942;9.256;2022-12-26T16:29:40;7.20;;;6.80;;
434;SDS011;204;48.942;9.256;2022-12-26T16:32:15;3.63;;;3.42;;
434;SDS011;204;48.942;9.256;2022-12-26T16:34:45;3.72;;;3.53;;
434;SDS011;204;48.942;9.256;2022-12-26T16:37:14;3.03;;;2.20;;
434;SDS011;204;48.942;9.256;2022-12-26T16:39:43;3.33;;;3.13;;
434;SDS011;204;48.942;9.256;2022-12-26T16:42:27;3.47;;;3.00;;
434;SDS011;204;48.942;9.256;2022-12-26T16:44:54;3.08;;;2.85;;
434;SDS011;204;48.942;9.256;2022-12-26T16:47:21;3.00;;;2.80;;
434;SDS011;204;48.942;9.256;2022-12-26T16:49:47;4.10;;;2.72;;
434;SDS011;204;48.942;9.256;2022-12-26T16:52:34;4.00;;;3.80;;
434;SDS011;204;48.942;9.256;2022-12-26T16:58:00;4.68;;;4.35;;
434;SDS011;204;48.942;9.256;2022-12-26T17:00:29;6.78;;;6.20;;
434;SDS011;204;48.942;9.256;2022-12-26T17:02:56;5.70;;;5.43;;
434;SDS011;204;48.942;9.256;2022-12-26T17:05:28;5.38;;;5.07;;
434;SDS011;204;48.942;9.256;2022-12-26T17:07:57;5.30;;;5.00;;
434;SDS011;204;48.942;9.256;2022-12-26T17:10:26;3.97;;;3.78;;
434;SDS011;204;48.942;9.256;2022-12-26T17:12:58;4.25;;;4.00;;
434;SDS011;204;48.942;9.256;2022-12-26T17:15:27;5.10;;;4.82;;
434;SDS011;204;48.942;9.256;2022-12-26T17:18:34;7.03;;;5.55;;
434;SDS011;204;48.942;9.256;2022-12-26T17:21:29;7.25;;;6.85;;
434;SDS011;204;48.942;9.256;2022-12-26T17:26:34;10.10;;;8.55;;
434;SDS011;204;48.942;9.256;2022-12-26T17:29:02;12.57;;;11.75;;
434;SDS011;204;48.942;9.256;2022-12-26T17:34:07;4.22;;;3.60;;
434;SDS011;204;48.942;9.256;2022-12-26T17:36:39;3.08;;;2.88;;
434;SDS011;204;48.942;9.256;2022-12-26T17:39:12;3.37;;;3.17;;
434;SDS011;204;48.942;9.256;2022-12-26T17:41:54;5.50;;;5.20;;
434;SDS011;204;48.942;9.256;2022-12-26T17:49:45;3.65;;;2.45;;
434;SDS011;204;48.942;9.256;2022-12-26T17:52:12;2.55;;;2.35;;
434;SDS011;204;48.942;9.256;2022-12-26T17:54:39;3.47;;;3.20;;
434;SDS011;204;48.942;9.256;2022-12-26T17:57:05;3.87;;;3.00;;
434;SDS011;204;48.942;9.256;2022-12-26T17:59:34;2.90;;;2.70;;
434;SDS011;204;48.942;9.256;2022-12-26T18:01:59;3.70;;;2.37;;
434;SDS011;204;48.942;9.256;2022-12-26T18:04:25;2.80;;;2.60;;
434;SDS011;204;48.942;9.256;2022-12-26T18:06:50;2.70;;;2.50;;
434;SDS011;204;48.942;9.256;2022-12-26T18:09:23;10.60;;;7.20;;
434;SDS011;204;48.942;9.256;2022-12-26T18:11:51;2.88;;;2.13;;
434;SDS011;204;48.942;9.256;2022-12-26T18:14:17;3.00;;;2.80;;
434;SDS011;204;48.942;9.256;2022-12-26T18:16:42;3.57;;;2.87;;
434;SDS011;204;48.942;9.256;2022-12-26T18:19:10;2.30;;;2.10;;
434;SDS011;204;48.942;9.256;2022-12-26T18:21:39;2.55;;;2.22;;
434;SDS011;204;48.942;9.256;2022-12-26T18:24:04;1.70;;;1.50;;
434;SDS011;204;48.942;9.256;2022-12-26T18:26:30;1.67;;;1.57;;
434;SDS011;204;48.942;9.256;2022-12-26T18:28:56;2.47;;;1.40;;
434;SDS011;204;48.942;9.256;2022-12-26T18:31:22;1.20;;;0.77;;
434;SDS011;204;48.942;9.256;2022-12-26T18:33:50;1.90;;;0.95;;
434;SDS011;204;48.942;9.256;2022-12-26T18:36:16;0.90;;;0.80;;
434;SDS011;204;48.942;9.256;2022-12-26T18:38:43;2.72;;;1.30;;
434;SDS011;204;48.942;9.256;2022-12-26T18:41:13;0.90;;;0.80;;
434;SDS011;204;48.942;9.256;2022-12-26T18:43:40;1.02;;;0.85;;
434;SDS011;204;48.942;9.256;2022-12-26T18:46:08;1.33;;;0.93;;
434;SDS011;204;48.942;9.256;2022-12-26T18:48:42;1.30;;;1.00;;
434;SDS011;204;48.942;9.256;2022-12-26T18:51:07;2.93;;;1.17;;
434;SDS011;204;48.942;9.256;2022-12-26T18:53:33;2.90;;;2.07;;
434;SDS011;204;48.942;9.256;2022-12-26T18:55:59;9.47;;;7.07;;
434;SDS011;204;48.942;9.256;2022-12-26T18:58:24;2.47;;;2.13;;
434;SDS011;204;48.942;9.256;2022-12-26T19:00:50;1.60;;;1.40;;
434;SDS011;204;48.942;9.256;2022-12-26T19:03:16;1.43;;;1.33;;
434;SDS011;204;48.942;9.256;2022-12-26T19:05:41;1.53;;;1.43;;
434;SDS011;204;48.942;9.256;2022-12-26T19:08:07;3.17;;;1.40;;
434;SDS011;204;48.942;9.256;2022-12-26T19:10:34;1.35;;;1.20;;
434;SDS011;204;48.942;9.256;2022-12-26T19:13:00;4.03;;;1.70;;
434;SDS011;204;48.942;9.256;2022-12-26T19:15:30;2.08;;;1.90;;
434;SDS011;204;48.942;9.256;2022-12-26T19:17:57;1.85;;;0.90;;
434;SDS011;204;48.942;9.256;2022-12-26T19:20:23;1.00;;;0.60;;
434;SDS011;204;48.942;9.256;2022-12-26T19:22:50;0.85;;;0.80;;
434;SDS011;204;48.942;9.256;2022-12-26T19:25:17;1.25;;;0.80;;
434;SDS011;204;48.942;9.256;2022-12-26T19:27:44;0.95;;;0.82;;
434;SDS011;204;48.942;9.256;2022-12-26T19:30:10;1.30;;;1.13;;
434;SDS011;204;48.942;9.256;2022-12-26T19:32:36;1.58;;;1.52;;
434;SDS011;204;48.942;9.256;2022-12-26T19:35:02;3.63;;;1.20;;
434;SDS011;204;48.942;9.256;2022-12-26T19:37:28;1.00;;;0.90;;
434;SDS011;204;48.942;9.256;2022-12-26T19:39:54;1.43;;;1.00;;
434;SDS011;204;48.942;9.256;2022-12-26T19:42:20;0.93;;;0.77;;
434;SDS011;204;48.942;9.256;2022-12-26T19:44:45;1.13;;;1.10;;
434;SDS011;204;48.942;9.256;2022-12-26T19:47:11;0.88;;;0.80;;
434;SDS011;204;48.942;9.256;2022-12-26T19:49:37;1.97;;;1.10;;
434;SDS011;204;48.942;9.256;2022-12-26T19:52:03;3.08;;;1.85;;
434;SDS011;204;48.942;9.256;2022-12-26T19:54:29;2.67;;;2.00;;
434;SDS011;204;48.942;9.256;2022-12-26T19:56:54;2.30;;;1.93;;
434;SDS011;204;48.942;9.256;2022-12-26T19:59:20;1.10;;;1.10;;
434;SDS011;204;48.942;9.256;2022-12-26T20:01:46;1.13;;;1.10;;
434;SDS011;204;48.942;9.256;2022-12-26T20:04:11;1.07;;;1.00;;
434;SDS011;204;48.942;9.256;2022-12-26T20:06:37;1.40;;;1.17;;
434;SDS011;204;48.942;9.256;2022-12-26T20:09:05;1.58;;;1.48;;